Startpagina
METAR-TAF:

METAR-TAF

Vliegvelden :

Tsjita, Rusland

breedte: 52-05N, lengte: 113-29E, hoogte: 685 m

Actueel weer

Dit bericht is 32 minuten geleden gemaakt, om 01:30 UTC
Wind 19 kt uit het westnoordwesten
Temperatuur 5°C
Vochtigheid 56%
Druk 1013 hPa
Zicht 10 km of meer
Verspreide wolken op 3300 ft, Cumulonimbus.

METAR: UIAA 260130Z 30010MPS 9999 SCT033CB 05/M03 Q1013 R29/CLRD70 NOSIG RMK QFE701/0935

Tijdstip: 11:02 (02:02 UTC)

Verwachting

Dit bericht is 3 uur en het 2 minuten geleden gemaakt, om 23:00 UTC
Verwachting geldig van 26 om 00 UTC tot 26 om 24 UTC
Wind 17 kt uit het westnoordwesten met uitschieters tot 33 kt
Zicht: 5000 m
Gebroken wolken op 2000 ft, Cumulonimbus.
lichte sneeuwbuien, regen
Tijdelijke
van 26 om 00 UTC tot 26 om 12 UTC
Zicht: 2000 m
sneeuwbuien, regen

TAF: UIAA 252300Z 2600/2624 29009G17MPS 5000 -SHSNRA BKN020CB TEMPO 2600/2612 2000 SHSNRA

Waarnemingen en weersverwachtingen van meer dan 4000 vliegvelden (METAR en TAF).

De beschikbare stations zijn de gele en rode punten op de kaart.

Ga met uw muis naar het station om de naam te zien.

Klik dan om waarnemingen en weersverwachtingen te zien.

kaart wijzigen: klik op de groene knoppen met een zwart kruis om in te zoomen, op de groene knop met een streepje om uit te zoomen of op de groene pijlen voor aangrenzende kaarten.


METAR-TAF: